Time;durP1;ratioP1;P1;durP2;ratioP2;P2;SDS_P1;SDS_P2;PMS_P1;PMS_P2;Temp;Humidity;BMP_temperature;BMP_pressure;BME280_temperature;BME280_humidity;BME280_pressure;Samples;Min_cycle;Max_cycle;Signal;HPM_P1;HPM_P2
2021/08/09 00:00:21;;;;;;;;;;;;;;;28.96;38.34;97660.53;5071110;28;1524;-59
2021/08/09 00:02:46;;;;;;;;;;;;;;;28.99;38.27;97649.59;5072747;28;1115;-59
2021/08/09 00:05:11;;;;;;;;;;;;;;;28.97;38.16;97648.09;5072454;28;1917;-59
2021/08/09 00:07:36;;;;;;;;;;;;;;;29.01;37.82;97647.69;5074705;28;1303;-59
2021/08/09 00:10:02;;;;;;;;;;;;;;;29.00;38.13;97640.69;5071105;28;1556;-60
2021/08/09 00:12:27;;;;;;;;;;;;;;;29.01;38.09;97647.69;5071574;28;1500;-60
2021/08/09 00:14:52;;;;;;;;;;;;;;;28.97;38.13;97640.13;5072940;28;1141;-60
2021/08/09 00:17:17;;;;;;;;;;;;;;;28.92;38.33;97637.91;5071637;28;1369;-58
2021/08/09 00:19:43;;;;;;;;;;;;;;;28.85;38.15;97626.97;5070725;28;1639;-57
2021/08/09 00:22:08;;;;;;;;;;;;;;;29.00;38.10;97629.25;5070353;28;1625;-59
2021/08/09 00:24:33;;;;;;;;;;;;;;;28.99;37.82;97630.19;5072391;28;1286;-59
2021/08/09 00:26:58;;;;;;;;;;;;;;;28.95;38.18;97621.69;5069071;28;1917;-59
2021/08/09 00:29:23;;;;;;;;;;;;;;;28.99;38.08;97615.09;5072907;28;1079;-59
2021/08/09 00:31:49;;;;;;;;;;;;;;;29.02;38.17;97621.97;5072005;28;1112;-59
2021/08/09 00:34:14;;;;;;;;;;;;;;;28.98;38.04;97620.56;5072976;28;1312;-59
2021/08/09 00:36:39;;;;;;;;;;;;;;;29.04;37.87;97615.53;5071062;28;1607;-59
2021/08/09 00:39:04;;;;;;;;;;;;;;;28.91;38.09;97623.78;5070944;28;1399;-58
2021/08/09 00:41:29;;;;;;;;;;;;;;;29.00;37.90;97627.41;5071247;28;1547;-60
2021/08/09 00:43:55;;;;;;;;;;;;;;;29.03;37.82;97618.31;5070784;28;2023;-60
2021/08/09 00:46:20;;;;;;;;;;;;;;;28.97;38.10;97624.19;5071683;28;1985;-59
2021/08/09 00:48:45;;;;;;;;;;;;;;;29.07;37.90;97614.38;5068855;28;1551;-59
2021/08/09 00:51:10;;;;;;;;;;;;;;;29.03;37.86;97624.47;5072323;28;1178;-59
2021/08/09 00:53:35;;;;;;;;;;;;;;;29.00;37.70;97630.06;5068539;28;1604;-58
2021/08/09 00:56:02;;;;;;;;;;;;;;;29.03;37.79;97634.25;5071968;28;1556;-59
2021/08/09 00:58:27;;;;;;;;;;;;;;;29.05;37.76;97632.28;5068687;28;1268;-59
2021/08/09 01:00:52;;;;;;;;;;;;;;;28.90;38.19;97630.06;5068462;28;1194;-59
2021/08/09 01:03:18;;;;;;;;;;;;;;;29.10;37.45;97628.25;5067162;28;1154;-60
2021/08/09 01:05:43;;;;;;;;;;;;;;;29.04;37.68;97626.13;5069757;28;1905;-59
2021/08/09 01:08:27;;;;;;;;;;;;;;;29.03;37.68;97634.25;5070735;28;1646;-58
2021/08/09 01:11:03;;;;;;;;;;;;;;;28.98;37.89;97636.47;5071174;28;1151;-58
2021/08/09 01:13:31;;;;;;;;;;;;;;;29.06;37.69;97639.28;5070664;28;1141;-59
2021/08/09 01:15:58;;;;;;;;;;;;;;;28.97;37.82;97632.16;5072405;28;1237;-58
2021/08/09 01:18:23;;;;;;;;;;;;;;;29.02;37.63;97643.19;5096392;22;1831;-56
2021/08/09 01:20:53;;;;;;;;;;;;;;;29.08;37.49;97643.47;5087757;28;1945;-54
2021/08/09 01:23:27;;;;;;;;;;;;;;;29.08;37.66;97654.09;5073373;28;1251;-55
2021/08/09 01:25:57;;;;;;;;;;;;;;;29.05;37.55;97656.19;5057037;28;1985;-55
2021/08/09 01:28:22;;;;;;;;;;;;;;;29.07;37.79;97649.78;5090665;28;1532;-55
2021/08/09 01:30:48;;;;;;;;;;;;;;;28.94;37.79;97651.03;5072833;28;1073;-54
2021/08/09 01:33:13;;;;;;;;;;;;;;;29.07;37.72;97643.59;5090217;28;1338;-56
2021/08/09 01:35:38;;;;;;;;;;;;;;;29.11;37.38;97648.50;5073600;28;1212;-54
2021/08/09 01:38:04;;;;;;;;;;;;;;;29.08;37.64;97648.78;5089176;28;1595;-56
2021/08/09 01:40:29;;;;;;;;;;;;;;;28.96;38.04;97643.75;5073977;28;1396;-55
2021/08/09 01:42:54;;;;;;;;;;;;;;;29.03;37.61;97645.72;5071877;28;1607;-54
2021/08/09 01:45:19;;;;;;;;;;;;;;;29.06;37.74;97644.59;5073232;28;1906;-55
2021/08/09 01:47:44;;;;;;;;;;;;;;;28.91;38.07;97638.84;5090673;28;1365;-54
2021/08/09 01:50:10;;;;;;;;;;;;;;;28.98;37.59;97645.28;5088503;28;1643;-55
2021/08/09 01:52:35;;;;;;;;;;;;;;;29.06;37.87;97640.09;5072998;28;1251;-54
2021/08/09 01:55:01;;;;;;;;;;;;;;;28.99;37.79;97630.19;5069329;28;1476;-54
2021/08/09 01:57:26;;;;;;;;;;;;;;;28.98;37.94;97632.00;5090153;28;1591;-56
2021/08/09 01:59:51;;;;;;;;;;;;;;;29.09;37.70;97631.88;5091833;28;1596;-54
2021/08/09 02:02:27;;;;;;;;;;;;;;;29.17;37.51;97629.34;5091034;28;1164;-56
2021/08/09 02:04:52;;;;;;;;;;;;;;;28.95;37.84;97631.47;5088765;28;1963;-54
2021/08/09 02:07:17;;;;;;;;;;;;;;;29.07;37.64;97635.63;5090632;28;1350;-54
2021/08/09 02:09:42;;;;;;;;;;;;;;;29.00;37.75;97624.75;5087775;28;1720;-55
2021/08/09 02:12:07;;;;;;;;;;;;;;;29.09;37.25;97615.94;5086040;28;1487;-55
2021/08/09 02:14:34;;;;;;;;;;;;;;;28.99;37.64;97615.09;5090172;28;1196;-54
2021/08/09 02:17:02;;;;;;;;;;;;;;;29.03;37.61;97613.00;5071155;28;1272;-56
2021/08/09 02:19:34;;;;;;;;;;;;;;;28.97;37.52;97618.88;5091237;28;1309;-55
2021/08/09 02:22:06;;;;;;;;;;;;;;;28.97;37.60;97614.41;5070507;28;1549;-55
2021/08/09 02:24:33;;;;;;;;;;;;;;;29.02;37.53;97609.53;5074107;28;1401;-54
2021/08/09 02:26:59;;;;;;;;;;;;;;;28.97;37.73;97602.94;5087894;28;1902;-56
2021/08/09 02:29:27;;;;;;;;;;;;;;;28.98;37.47;97605.47;5072170;28;1385;-55
2021/08/09 02:31:52;;;;;;;;;;;;;;;29.04;37.49;97612.88;5072319;28;1080;-54
2021/08/09 02:34:18;;;;;;;;;;;;;;;28.94;37.71;97622.66;5072186;28;1242;-53
2021/08/09 02:36:43;;;;;;;;;;;;;;;29.03;37.43;97623.63;5071863;28;1611;-56
2021/08/09 02:39:08;;;;;;;;;;;;;;;29.03;37.48;97621.81;5090785;28;1183;-54
2021/08/09 02:41:33;;;;;;;;;;;;;;;29.07;37.28;97625.00;5071262;28;1560;-56
2021/08/09 02:43:59;;;;;;;;;;;;;;;29.07;37.39;97635.63;5072656;28;1215;-56
2021/08/09 02:46:24;;;;;;;;;;;;;;;28.95;37.58;97626.16;5072290;28;1894;-55
2021/08/09 02:48:49;;;;;;;;;;;;;;;28.99;37.50;97631.03;5072226;28;1286;-56
2021/08/09 02:51:18;;;;;;;;;;;;;;;29.07;37.42;97627.66;5070998;28;1643;-54
2021/08/09 02:53:43;;;;;;;;;;;;;;;29.09;37.35;97629.22;5090082;28;1195;-55
2021/08/09 02:56:08;;;;;;;;;;;;;;;29.06;37.46;97626.84;5068347;28;1523;-56
2021/08/09 02:58:33;;;;;;;;;;;;;;;28.96;37.42;97631.31;5090292;28;1352;-54
2021/08/09 03:00:59;;;;;;;;;;;;;;;29.05;37.47;97630.47;5067887;28;1541;-56
2021/08/09 03:03:26;;;;;;;;;;;;;;;29.00;37.81;97639.84;5069654;28;1514;-55
2021/08/09 03:05:52;;;;;;;;;;;;;;;28.96;37.50;97633.97;5072072;28;1901;-53
2021/08/09 03:08:17;;;;;;;;;;;;;;;28.92;37.88;97636.09;5070413;28;1537;-56
2021/08/09 03:10:42;;;;;;;;;;;;;;;28.97;37.69;97640.13;5072357;28;1260;-53
2021/08/09 03:13:10;;;;;;;;;;;;;;;28.98;37.62;97647.94;5088236;28;1550;-56
2021/08/09 03:15:36;;;;;;;;;;;;;;;29.01;37.45;97650.34;5072003;28;1247;-54
2021/08/09 03:18:02;;;;;;;;;;;;;;;29.02;37.54;97653.81;5089350;28;1293;-56
2021/08/09 03:20:27;;;;;;;;;;;;;;;28.99;37.38;97644.31;5087678;28;1527;-55
2021/08/09 03:22:52;;;;;;;;;;;;;;;28.99;37.37;97649.59;5089193;28;1332;-55
2021/08/09 03:25:18;;;;;;;;;;;;;;;28.96;37.52;97646.41;5090486;28;1910;-55
2021/08/09 03:27:43;;;;;;;;;;;;;;;28.99;37.36;97644.31;5087369;28;1558;-54
2021/08/09 03:30:09;;;;;;;;;;;;;;;29.06;37.30;97642.75;5089270;28;1370;-56
2021/08/09 03:32:34;;;;;;;;;;;;;;;28.96;37.58;97641.94;5089048;28;1120;-54
2021/08/09 03:34:59;;;;;;;;;;;;;;;28.98;37.68;97641.78;5089333;28;1282;-55
2021/08/09 03:37:24;;;;;;;;;;;;;;;29.08;37.52;97640.81;5088601;28;1622;-53
2021/08/09 03:39:49;;;;;;;;;;;;;;;29.04;37.49;97644.72;5089730;28;1200;-54
2021/08/09 03:42:15;;;;;;;;;;;;;;;29.02;37.22;97652.00;5087841;28;1986;-55
2021/08/09 03:44:40;;;;;;;;;;;;;;;29.07;37.04;97652.44;5089827;28;1128;-54
2021/08/09 03:47:05;;;;;;;;;;;;;;;29.08;37.29;97663.88;5088652;28;1902;-55
2021/08/09 03:49:30;;;;;;;;;;;;;;;29.08;37.25;97662.06;5088321;28;1354;-55
2021/08/09 03:51:56;;;;;;;;;;;;;;;28.91;37.46;97665.41;5087410;28;1618;-54
2021/08/09 03:54:21;;;;;;;;;;;;;;;29.01;37.24;97662.78;5086704;28;1492;-55
2021/08/09 03:56:46;;;;;;;;;;;;;;;28.81;37.77;97659.22;5087988;28;1571;-56
2021/08/09 03:59:11;;;;;;;;;;;;;;;28.91;37.71;97665.41;5091250;28;1233;-56
2021/08/09 04:01:40;;;;;;;;;;;;;;;29.06;37.22;97671.13;5089777;28;998;-54
2021/08/09 04:04:06;;;;;;;;;;;;;;;29.03;37.47;97674.09;5088656;28;1052;-54
2021/08/09 04:06:32;;;;;;;;;;;;;;;28.94;37.67;97665.16;5065512;28;1994;-54
2021/08/09 04:08:57;;;;;;;;;;;;;;;29.04;37.32;97667.78;5088678;28;1232;-56
2021/08/09 04:11:22;;;;;;;;;;;;;;;28.99;37.56;97665.53;5088609;28;1476;-55
2021/08/09 04:13:47;;;;;;;;;;;;;;;28.97;37.45;97671.97;5089070;28;1097;-55
2021/08/09 04:16:12;;;;;;;;;;;;;;;28.92;37.66;97672.41;5086280;28;1626;-56
2021/08/09 04:18:39;;;;;;;;;;;;;;;28.95;37.50;97669.47;5088025;28;1393;-54
2021/08/09 04:21:04;;;;;;;;;;;;;;;28.91;37.56;97663.63;5088438;28;1218;-53
2021/08/09 04:23:29;;;;;;;;;;;;;;;28.98;37.46;97658.56;5086293;28;1528;-55
2021/08/09 04:25:54;;;;;;;;;;;;;;;29.00;37.42;97666.41;5089510;28;1976;-54
2021/08/09 04:28:20;;;;;;;;;;;;;;;29.02;37.32;97669.75;5083635;28;1757;-54
2021/08/09 04:30:45;;;;;;;;;;;;;;;28.90;37.62;97667.22;5089367;28;1208;-55
2021/08/09 04:33:10;;;;;;;;;;;;;;;28.87;37.75;97675.44;5088722;28;1208;-56
2021/08/09 04:35:35;;;;;;;;;;;;;;;28.93;37.60;97668.78;5091218;28;1191;-55
2021/08/09 04:38:00;;;;;;;;;;;;;;;28.95;37.63;97669.47;5090872;28;1680;-55
2021/08/09 04:40:26;;;;;;;;;;;;;;;28.95;37.65;97673.94;5092556;28;1280;-54
2021/08/09 04:42:51;;;;;;;;;;;;;;;28.92;37.58;97669.75;5091347;28;1543;-55
2021/08/09 04:45:16;;;;;;;;;;;;;;;28.97;37.57;97672.81;5092154;28;1968;-53
2021/08/09 04:47:41;;;;;;;;;;;;;;;28.95;37.54;97668.63;5092864;28;1278;-56
2021/08/09 04:50:07;;;;;;;;;;;;;;;28.99;37.56;97672.66;5090843;28;1531;-54
2021/08/09 04:52:32;;;;;;;;;;;;;;;28.86;37.82;97671.13;5092481;28;1160;-55
2021/08/09 04:54:57;;;;;;;;;;;;;;;28.90;37.84;97672.53;5091860;28;1243;-55
2021/08/09 04:57:22;;;;;;;;;;;;;;;28.86;37.96;97670.28;5090361;28;1627;-54
2021/08/09 04:59:47;;;;;;;;;;;;;;;28.88;37.80;97668.31;5089266;28;1591;-54
2021/08/09 05:02:13;;;;;;;;;;;;;;;28.95;37.71;97658.84;5092525;28;1230;-55
2021/08/09 05:04:38;;;;;;;;;;;;;;;28.87;37.60;97662.16;5091278;28;1403;-56
2021/08/09 05:07:03;;;;;;;;;;;;;;;28.90;37.76;97669.03;5091808;28;1960;-56
2021/08/09 05:09:28;;;;;;;;;;;;;;;28.91;37.72;97673.38;5092462;28;1773;-57
2021/08/09 05:11:54;;;;;;;;;;;;;;;28.95;37.77;97673.94;5087618;28;1493;-55
2021/08/09 05:14:19;;;;;;;;;;;;;;;28.83;38.00;97674.03;5092067;28;1132;-56
2021/08/09 05:16:45;;;;;;;;;;;;;;;28.79;38.31;97674.47;5091141;28;1353;-56
2021/08/09 05:19:11;;;;;;;;;;;;;;;28.95;37.64;97680.09;5093220;28;1261;-54
2021/08/09 05:21:36;;;;;;;;;;;;;;;28.92;37.61;97680.38;5090877;28;1580;-56
2021/08/09 05:24:02;;;;;;;;;;;;;;;28.91;37.90;97676.03;5090959;28;1242;-54
2021/08/09 05:26:27;;;;;;;;;;;;;;;28.81;38.03;97683.13;5088537;28;1914;-53
2021/08/09 05:28:52;;;;;;;;;;;;;;;28.87;37.96;97678.09;5091111;28;1385;-55
2021/08/09 05:31:17;;;;;;;;;;;;;;;28.88;38.04;97674.47;5091726;28;1124;-54
2021/08/09 05:33:43;;;;;;;;;;;;;;;28.92;37.74;97683.03;5091247;28;1156;-55
2021/08/09 05:36:08;;;;;;;;;;;;;;;28.85;37.97;97682.72;5073922;28;1575;-54
2021/08/09 05:38:33;;;;;;;;;;;;;;;28.84;37.83;97682.84;5091749;28;1389;-56
2021/08/09 05:41:01;;;;;;;;;;;;;;;28.88;37.93;97678.94;5090721;28;1567;-55
2021/08/09 05:43:26;;;;;;;;;;;;;;;28.85;38.07;97690.69;5091536;28;1117;-56
2021/08/09 05:45:51;;;;;;;;;;;;;;;28.80;38.08;97686.75;5090619;28;1901;-55
2021/08/09 05:48:16;;;;;;;;;;;;;;;28.74;38.25;97685.47;5091981;28;1299;-53
2021/08/09 05:50:42;;;;;;;;;;;;;;;28.76;38.19;97688.84;5089235;28;1561;-54
2021/08/09 05:53:07;;;;;;;;;;;;;;;28.87;38.18;97698.50;5090435;28;1183;-54
2021/08/09 05:55:32;;;;;;;;;;;;;;;28.86;37.84;97688.84;5091935;28;1179;-54
2021/08/09 05:57:57;;;;;;;;;;;;;;;29.04;37.55;97692.53;5088172;28;1629;-55
2021/08/09 06:00:23;;;;;;;;;;;;;;;28.95;38.06;97693.38;5091342;28;1519;-54
2021/08/09 06:02:48;;;;;;;;;;;;;;;28.77;38.28;97702.97;5089324;28;1250;-54
2021/08/09 06:05:13;;;;;;;;;;;;;;;28.96;37.79;97703.00;5090512;28;1902;-56
2021/08/09 06:07:38;;;;;;;;;;;;;;;28.92;37.62;97699.81;5089796;28;1566;-54
2021/08/09 06:10:04;;;;;;;;;;;;;;;28.88;37.88;97700.16;5091888;28;1437;-55
2021/08/09 06:12:29;;;;;;;;;;;;;;;28.92;37.87;97705.09;5088933;28;1710;-54
2021/08/09 06:14:54;;;;;;;;;;;;;;;28.84;38.02;97699.63;5090121;28;1517;-55
2021/08/09 06:17:19;;;;;;;;;;;;;;;28.78;38.29;97694.03;5088192;28;1560;-54
2021/08/09 06:19:44;;;;;;;;;;;;;;;28.78;38.07;97699.31;5089963;28;1338;-56
2021/08/09 06:22:10;;;;;;;;;;;;;;;28.98;37.57;97709.00;5091887;28;1278;-55
2021/08/09 06:24:35;;;;;;;;;;;;;;;28.75;38.04;97710.19;5087827;28;1638;-56
2021/08/09 06:27:00;;;;;;;;;;;;;;;28.85;38.08;97711.91;5088230;28;1972;-55
2021/08/09 06:29:26;;;;;;;;;;;;;;;28.75;38.13;97703.06;5091262;28;1326;-57
2021/08/09 06:31:51;;;;;;;;;;;;;;;28.91;37.95;97710.53;5090395;28;1044;-54
2021/08/09 06:34:16;;;;;;;;;;;;;;;28.91;37.99;97707.88;5089047;28;1323;-54
2021/08/09 06:36:41;;;;;;;;;;;;;;;29.00;37.61;97717.69;5089200;28;1658;-55
2021/08/09 06:39:07;;;;;;;;;;;;;;;29.02;37.87;97720.19;5089402;28;1200;-53
2021/08/09 06:41:32;;;;;;;;;;;;;;;28.99;37.90;97717.81;5088913;28;1832;-56
2021/08/09 06:43:58;;;;;;;;;;;;;;;28.99;37.68;97720.47;5089692;28;1167;-54
2021/08/09 06:46:23;;;;;;;;;;;;;;;28.90;38.30;97720.31;5090365;28;1914;-56
2021/08/09 06:48:48;;;;;;;;;;;;;;;29.02;37.69;97714.91;5089686;28;1308;-54
2021/08/09 06:51:14;;;;;;;;;;;;;;;28.93;37.81;97716.56;5088385;28;1761;-56
2021/08/09 06:53:39;;;;;;;;;;;;;;;29.10;37.59;97715.03;5087643;28;1611;-56
2021/08/09 06:56:04;;;;;;;;;;;;;;;28.93;38.10;97708.59;5070919;28;1648;-53
2021/08/09 06:58:29;;;;;;;;;;;;;;;29.06;37.61;97709.16;5090021;28;1404;-55
2021/08/09 07:00:54;;;;;;;;;;;;;;;28.94;37.74;97712.94;5088091;28;1559;-55
2021/08/09 07:03:20;;;;;;;;;;;;;;;29.03;37.69;97712.09;5089103;28;1081;-56
2021/08/09 07:05:45;;;;;;;;;;;;;;;28.98;37.83;97714.31;5089952;28;1910;-56
2021/08/09 07:08:11;;;;;;;;;;;;;;;28.98;37.87;97711.66;5089828;28;1345;-56
2021/08/09 07:10:36;;;;;;;;;;;;;;;28.99;38.01;97709.84;5088746;28;1599;-54
2021/08/09 07:13:01;;;;;;;;;;;;;;;28.98;37.68;97713.47;5088328;28;1631;-56
2021/08/09 07:15:26;;;;;;;;;;;;;;;29.03;37.85;97708.59;5090791;28;1218;-56
2021/08/09 07:17:52;;;;;;;;;;;;;;;28.96;37.90;97707.47;5093326;22;1547;-91
2021/08/09 07:20:17;;;;;;;;;;;;;;;29.00;37.82;97706.25;5071093;28;1544;-91
2021/08/09 07:22:43;;;;;;;;;;;;;;;28.94;37.71;97697.00;5072037;28;1464;-91
2021/08/09 07:25:09;;;;;;;;;;;;;;;28.77;38.19;97708.28;5072418;28;1914;-91
2021/08/09 07:27:34;;;;;;;;;;;;;;;28.96;37.91;97697.69;5072055;28;1592;-91
2021/08/09 07:29:59;;;;;;;;;;;;;;;29.03;37.70;97696.16;5056412;28;1248;-91
2021/08/09 07:32:24;;;;;;;;;;;;;;;29.02;37.74;97696.31;5073713;28;1259;-91
2021/08/09 07:34:50;;;;;;;;;;;;;;;29.07;37.67;97704.69;5076547;28;1307;-91
2021/08/09 07:37:15;;;;;;;;;;;;;;;29.10;37.84;97707.91;5072559;28;1132;-91
2021/08/09 07:39:40;;;;;;;;;;;;;;;29.02;38.03;97701.63;5057242;28;1430;-91
2021/08/09 07:42:05;;;;;;;;;;;;;;;28.78;38.05;97709.94;5055520;28;1601;-91
2021/08/09 07:44:31;;;;;;;;;;;;;;;29.03;37.86;97711.25;5074903;28;1268;-91
2021/08/09 07:46:56;;;;;;;;;;;;;;;29.08;37.48;97712.53;5072177;28;1886;-91
2021/08/09 07:49:21;;;;;;;;;;;;;;;28.98;38.08;97716.13;5073707;28;1195;-91
2021/08/09 07:51:46;;;;;;;;;;;;;;;28.87;37.89;97717.91;5072933;28;1560;-91
2021/08/09 07:54:11;;;;;;;;;;;;;;;28.82;38.21;97716.66;5056471;28;1349;-91
2021/08/09 07:56:36;;;;;;;;;;;;;;;29.02;37.68;97712.25;5073050;28;1544;-91
2021/08/09 07:59:02;;;;;;;;;;;;;;;29.07;37.75;97716.16;5076714;28;1139;-91
2021/08/09 08:01:27;;;;;;;;;;;;;;;29.12;37.47;97715.72;5054380;28;1294;-91
2021/08/09 08:03:52;;;;;;;;;;;;;;;28.96;37.93;97715.44;5073120;28;1535;-91
2021/08/09 08:06:17;;;;;;;;;;;;;;;29.06;37.61;97716.28;5073785;28;1946;-91
2021/08/09 08:08:43;;;;;;;;;;;;;;;28.96;37.75;97713.63;5072051;28;1227;-91
2021/08/09 08:11:08;;;;;;;;;;;;;;;29.03;37.86;97708.59;5058772;28;1555;-91
2021/08/09 08:13:33;;;;;;;;;;;;;;;29.18;37.56;97705.38;5058765;28;1437;-91
2021/08/09 08:15:58;;;;;;;;;;;;;;;29.09;37.96;97708.06;5077288;28;1168;-91
2021/08/09 08:18:23;;;;;;;;;;;;;;;29.11;37.85;97706.09;5059626;28;1224;-91
2021/08/09 08:20:49;;;;;;;;;;;;;;;29.06;37.87;97709.16;5080589;28;1541;-91
2021/08/09 08:23:14;;;;;;;;;;;;;;;29.12;37.82;97703.28;5077623;28;1369;-91
2021/08/09 08:25:42;;;;;;;;;;;;;;;29.01;37.83;97695.47;5077988;28;1996;-91
2021/08/09 08:28:08;;;;;;;;;;;;;;;29.01;37.71;97707.91;5073430;28;1576;-91
2021/08/09 08:30:33;;;;;;;;;;;;;;;29.11;37.76;97704.25;5077789;28;1043;-91
2021/08/09 08:32:58;;;;;;;;;;;;;;;29.06;37.98;97706.50;5074660;28;1415;-91
2021/08/09 08:35:23;;;;;;;;;;;;;;;29.12;37.76;97710.41;5076786;28;1213;-91
2021/08/09 08:37:48;;;;;;;;;;;;;;;29.04;37.58;97715.59;5058597;28;1570;-91
2021/08/09 08:40:14;;;;;;;;;;;;;;;29.08;37.83;97715.19;5059818;28;1383;-91
2021/08/09 08:42:39;;;;;;;;;;;;;;;29.09;37.58;97710.72;5075851;28;1639;-91
2021/08/09 08:45:05;;;;;;;;;;;;;;;29.02;37.82;97707.75;5076172;28;1973;-91
2021/08/09 08:47:30;;;;;;;;;;;;;;;29.03;38.01;97708.59;5076576;28;1135;-91
2021/08/09 08:49:55;;;;;;;;;;;;;;;28.98;37.95;97709.00;5058939;28;1440;-91
2021/08/09 08:52:20;;;;;;;;;;;;;;;29.12;37.70;97697.97;5075694;28;1845;-91
2021/08/09 08:54:46;;;;;;;;;;;;;;;29.02;37.84;97706.94;5075282;28;1275;-91
2021/08/09 08:57:15;;;;;;;;;;;;;;;29.04;37.99;97708.47;5074026;28;1501;-91
2021/08/09 08:59:40;;;;;;;;;;;;;;;29.09;37.91;97705.41;5059792;28;1207;-91
2021/08/09 09:02:06;;;;;;;;;;;;;;;29.15;37.65;97705.69;5075174;28;1440;-91
2021/08/09 09:04:32;;;;;;;;;;;;;;;29.10;37.77;97705.25;5058532;28;1348;-91
2021/08/09 09:07:07;;;;;;;;;;;;;;;29.05;37.62;97709.28;5058706;28;1972;-91
2021/08/09 09:09:33;;;;;;;;;;;;;;;28.90;38.25;97698.25;5075335;28;1304;-91
2021/08/09 09:12:00;;;;;;;;;;;;;;;29.01;38.01;97699.94;5057837;28;1632;-91
2021/08/09 09:14:26;;;;;;;;;;;;;;;29.10;37.66;97707.06;5059987;28;1339;-91
2021/08/09 09:16:52;;;;;;;;;;;;;;;29.07;37.87;97712.63;5058078;28;1308;-91
2021/08/09 09:19:29;;;;;;;;;;;;;;;29.08;37.78;97709.88;5058860;28;1586;-90
2021/08/09 09:21:54;;;;;;;;;;;;;;;29.06;37.94;97708.31;5074464;28;1571;-91
2021/08/09 09:24:20;;;;;;;;;;;;;;;29.12;37.75;97708.59;5058943;28;1407;-91
2021/08/09 09:26:56;;;;;;;;;;;;;;;29.04;37.85;97700.50;5076079;28;1906;-91
2021/08/09 09:29:21;;;;;;;;;;;;;;;29.01;37.73;97695.47;5078073;28;1095;-91
2021/08/09 09:31:47;;;;;;;;;;;;;;;29.13;37.50;97699.66;5058473;28;1246;-91
2021/08/09 09:34:13;;;;;;;;;;;;;;;29.08;37.84;97698.41;5071165;28;1553;-91
2021/08/09 09:36:45;;;;;;;;;;;;;;;29.09;37.54;97700.09;5056296;28;1241;-91
2021/08/09 09:39:29;;;;;;;;;;;;;;;29.08;37.82;97696.59;5059078;28;1315;-91
2021/08/09 09:41:58;;;;;;;;;;;;;;;29.02;37.75;97683.03;5073602;28;1604;-91
2021/08/09 09:44:24;;;;;;;;;;;;;;;29.01;37.94;97689.31;5074314;28;1368;-91
2021/08/09 09:46:49;;;;;;;;;;;;;;;28.85;38.07;97690.69;5057465;28;1906;-91
2021/08/09 09:49:33;;;;;;;;;;;;;;;28.94;38.03;97691.69;5058307;28;1303;-90
2021/08/09 09:51:59;;;;;;;;;;;;;;;28.83;38.28;97697.06;5072653;28;1541;-91
2021/08/09 09:54:24;;;;;;;;;;;;;;;28.90;38.11;97698.25;5074600;28;1387;-91
2021/08/09 09:56:50;;;;;;;;;;;;;;;28.80;38.16;97700.84;5061268;28;1442;-91
2021/08/09 09:59:15;;;;;;;;;;;;;;;28.95;37.91;97695.19;5075335;28;1176;-91
2021/08/09 10:01:40;;;;;;;;;;;;;;;29.02;37.96;97696.31;5073444;28;1628;-91
2021/08/09 10:04:06;;;;;;;;;;;;;;;29.01;37.87;97695.47;5075279;28;1559;-91
2021/08/09 10:06:31;;;;;;;;;;;;;;;28.90;38.14;97684.97;5056805;28;1914;-91
2021/08/09 10:08:56;;;;;;;;;;;;;;;28.85;38.25;97681.88;5059171;28;1255;-91
2021/08/09 10:11:21;;;;;;;;;;;;;;;28.87;38.42;97688.72;5055927;28;1578;-91
2021/08/09 10:13:47;;;;;;;;;;;;;;;29.02;37.87;97688.34;5074649;28;1325;-91
2021/08/09 10:16:12;;;;;;;;;;;;;;;29.26;37.28;97677.28;5073366;28;1219;-91
2021/08/09 10:18:40;;;;;;;;;;;;;;;29.63;36.65;97675.59;5074655;28;1443;-91
2021/08/09 10:21:05;;;;;;;;;;;;;;;29.71;36.57;97682.84;5073218;28;1579;-91
2021/08/09 10:23:36;;;;;;;;;;;;;;;29.71;36.58;97680.19;5073023;28;1336;-91
2021/08/09 10:26:01;;;;;;;;;;;;;;;29.66;36.42;97685.09;5056859;28;1898;-91
2021/08/09 10:28:47;;;;;;;;;;;;;;;29.81;36.35;97678.31;5073372;28;1164;-91
2021/08/09 10:31:22;;;;;;;;;;;;;;;29.71;36.42;97678.34;5073497;28;1847;-91
2021/08/09 10:33:48;;;;;;;;;;;;;;;29.80;36.29;97681.13;5071128;28;1362;-91
2021/08/09 10:36:14;;;;;;;;;;;;;;;29.90;36.28;97673.94;5058518;28;1557;-91
2021/08/09 10:38:39;;;;;;;;;;;;;;;29.75;36.53;97679.72;5073464;28;1160;-91
2021/08/09 10:41:08;;;;;;;;;;;;;;;29.71;36.63;97683.69;5075868;28;1586;-91
2021/08/09 10:43:33;;;;;;;;;;;;;;;29.07;37.46;97686.97;5073441;28;1279;-91
2021/08/09 10:45:58;;;;;;;;;;;;;;;28.99;37.94;97672.66;5056273;28;1906;-90
2021/08/09 10:48:42;;;;;;;;;;;;;;;28.92;38.22;97675.91;5074289;28;1393;-91
2021/08/09 10:51:07;;;;;;;;;;;;;;;28.96;38.09;97667.66;5078599;28;1639;-91
2021/08/09 10:53:35;;;;;;;;;;;;;;;28.85;38.41;97671.25;5076879;28;1333;-91
2021/08/09 10:56:01;;;;;;;;;;;;;;;28.97;37.95;97666.66;5072841;28;1623;-91
2021/08/09 10:58:45;;;;;;;;;;;;;;;28.98;38.23;97663.88;5080216;28;1220;-91
2021/08/09 11:01:11;;;;;;;;;;;;;;;28.97;37.82;97672.81;5073604;28;1219;-91
2021/08/09 11:03:56;;;;;;;;;;;;;;;28.84;38.20;97670.41;5072468;28;1590;-91
2021/08/09 11:06:38;;;;;;;;;;;;;;;28.98;37.89;97666.53;5073179;28;1909;-90
2021/08/09 11:09:22;;;;;;;;;;;;;;;28.86;38.37;97668.47;5056759;28;1324;-91
2021/08/09 11:12:06;;;;;;;;;;;;;;;28.87;38.08;97667.47;5073069;28;1596;-91
2021/08/09 11:14:31;;;;;;;;;;;;;;;28.98;38.17;97658.56;5073854;28;1423;-91
2021/08/09 11:16:58;;;;;;;;;;;;;;;29.04;38.07;97655.34;5056235;28;1211;-91
2021/08/09 11:19:24;;;;;;;;;;;;;;;28.98;38.10;97653.25;5073577;28;1152;-91
2021/08/09 11:21:49;;;;;;;;;;;;;;;29.00;37.93;97655.78;5056188;28;1531;-91
2021/08/09 11:24:15;;;;;;;;;;;;;;;28.96;37.94;97657.88;5073598;28;1467;-91
2021/08/09 11:26:40;;;;;;;;;;;;;;;29.00;38.15;97653.13;5055691;28;1910;-91
2021/08/09 11:29:06;;;;;;;;;;;;;;;28.98;37.83;97645.28;5055592;28;1536;-91
2021/08/09 11:31:44;;;;;;;;;;;;;;;29.04;37.85;97649.19;5077189;28;1188;-91
2021/08/09 11:34:09;;;;;;;;;;;;;;;29.07;37.70;97652.44;5056400;28;1349;-91
2021/08/09 11:36:34;;;;;;;;;;;;;;;29.08;37.63;97648.78;5055198;28;1533;-91
2021/08/09 11:39:02;;;;;;;;;;;;;;;29.04;37.81;97642.06;5070293;28;1417;-91
2021/08/09 11:41:28;;;;;;;;;;;;;;;29.04;37.69;97642.06;5072419;28;1538;-91
2021/08/09 11:43:57;;;;;;;;;;;;;;;29.01;38.15;97646.84;5072033;28;1499;-91
2021/08/09 11:46:23;;;;;;;;;;;;;;;29.05;37.84;97641.09;5057549;28;1981;-91
2021/08/09 11:48:48;;;;;;;;;;;;;;;29.02;37.92;97644.03;5075153;28;1339;-91
2021/08/09 11:51:14;;;;;;;;;;;;;;;29.08;37.73;97642.66;5076631;28;1639;-91
2021/08/09 11:53:40;;;;;;;;;;;;;;;29.04;37.75;97638.59;5075908;28;1284;-90
2021/08/09 11:56:13;;;;;;;;;;;;;;;28.98;37.81;97641.78;5058661;28;1724;-91
2021/08/09 11:58:39;;;;;;;;;;;;;;;29.01;37.97;97637.06;5075815;28;1200;-91
2021/08/09 12:01:04;;;;;;;;;;;;;;;29.00;37.83;97635.38;5077621;28;1338;-91
2021/08/09 12:03:29;;;;;;;;;;;;;;;28.98;38.14;97637.31;5076500;28;1372;-91
2021/08/09 12:05:58;;;;;;;;;;;;;;;29.02;38.11;97629.94;5058586;28;1910;-91
2021/08/09 12:08:24;;;;;;;;;;;;;;;29.10;37.98;97624.75;5074752;28;1539;-91
2021/08/09 12:10:49;;;;;;;;;;;;;;;29.08;37.87;97630.22;5059600;28;1195;-91
2021/08/09 12:13:22;;;;;;;;;;;;;;;29.00;38.02;97623.94;5075190;28;2027;-90
2021/08/09 12:16:06;;;;;;;;;;;;;;;29.04;37.73;97628.78;5058913;28;1634;-91
2021/08/09 12:18:31;;;;;;;;;;;;;;;28.92;37.94;97622.81;5076914;28;1108;-91
2021/08/09 12:21:13;;;;;;;;;;;;;;;28.96;37.84;97623.34;5059957;28;1522;-91
2021/08/09 12:23:48;;;;;;;;;;;;;;;28.94;38.15;97627.97;5077378;28;1279;-91
2021/08/09 12:26:22;;;;;;;;;;;;;;;29.01;38.09;97625.59;5056241;28;1975;-91
2021/08/09 12:28:51;;;;;;;;;;;;;;;28.91;38.25;97630.88;5075938;28;1216;-91
2021/08/09 12:31:30;;;;;;;;;;;;;;;29.04;37.91;97626.13;5075384;28;1445;-91
2021/08/09 12:34:01;;;;;;;;;;;;;;;28.96;38.06;97625.16;5057903;28;1523;-91
2021/08/09 12:36:26;;;;;;;;;;;;;;;29.02;38.22;97627.28;5058070;28;1231;-91
2021/08/09 12:38:52;;;;;;;;;;;;;;;29.03;38.07;97626.28;5057677;28;1509;-90
2021/08/09 12:41:24;;;;;;;;;;;;;;;29.07;37.83;97627.66;5075455;28;1662;-91
2021/08/09 12:43:49;;;;;;;;;;;;;;;29.07;37.98;97623.22;5073539;28;1429;-92
2021/08/09 12:46:15;;;;;;;;;;;;;;;29.04;37.89;97631.44;5075387;28;1910;-91
2021/08/09 12:48:49;;;;;;;;;;;;;;;29.08;37.70;97640.00;5058076;28;1400;-91
2021/08/09 12:51:15;;;;;;;;;;;;;;;29.09;37.99;97633.69;5058539;28;1356;-91
2021/08/09 12:53:40;;;;;;;;;;;;;;;29.06;37.81;97626.84;5088323;22;2034;-59